Bk Champc? — DSPN5 — position and weather

sailwx.info

Track history (hours):
 
Tides and Currents Weather Stations Pressure Air Temp Water Temp Dewpoint Dewpoint Depression Visibility Wind Speed Wind Dir Waves Ship Positions

Bk Champc?

Last reported at 2015-May-09 01:27 UTC. Time now 2015-May-24 05:20 UTC.
Position N 01°15' E 104°05'.
Warning: this ship's position is 15 days out of date.

Length 176 m.

Type: Ship. MMSI: 216797491.

Date/timePositionNaut miles runAvg speedWind from/ knotsBaromVisibWave heightAir tempDewpointWater temp
2015-May-09 01:27N 01°15' E 104°05'1413.8
2015-May-09 00:25N 01°11' E 103°51'2 1.4
2015-May-08 23:09N 01°13' E 103°50'4 5.1
2015-May-08 22:18N 01°15' E 103°53'2 1.8
2015-May-08 21:20N 01°16' E 103°54'0 0.0
2015-May-08 20:11N 01°16' E 103°54'0 0.0
2015-May-08 19:26N 01°16' E 103°54'0 0.0
2015-May-08 18:14N 01°16' E 103°54'0 0.1
2015-May-08 16:08N 01°16' E 103°54'0 0.0
2015-May-08 15:32N 01°16' E 103°54'0 0.0
2015-May-08 14:24N 01°16' E 103°54'0 0.0
2015-May-08 13:33N 01°16' E 103°54'0 0.0
2015-May-08 12:32N 01°16' E 103°54'2 1.8
2015-May-08 11:33N 01°16' E 103°56'7 6.4
2015-May-08 10:32N 01°12' E 103°50'2 1.3
2015-May-08 09:20N 01°13' E 103°49'0 0.1
2015-May-08 07:29N 01°13' E 103°49'0 0.3
2015-May-08 06:30N 01°13' E 103°49'5 5.3
2015-May-08 05:33N 01°14' E 103°54'9 9.2
2015-May-08 04:32N 01°16' E 104°03'  
Track history (hours):
 
Tides and Currents Weather Stations Pressure Air Temp Water Temp Dewpoint Dewpoint Depression Visibility Wind Speed Wind Dir Waves Ship Positions

Bk Champc?

Last reported at 2015-May-09 01:27 UTC. Time now 2015-May-24 05:20 UTC.
Position N 01°15' E 104°05'.
Warning: this ship's position is 15 days out of date.

Length 176 m.

Type: Ship. MMSI: 216797491.

Date/timePositionNaut miles runAvg speedWind from/ knotsBaromVisibWave heightAir tempDewpointWater temp
2015-May-09 01:27N 01°15' E 104°05'1413.8
2015-May-09 00:25N 01°11' E 103°51'2 1.4
2015-May-08 23:09N 01°13' E 103°50'4 5.1
2015-May-08 22:18N 01°15' E 103°53'2 1.8
2015-May-08 21:20N 01°16' E 103°54'0 0.0
2015-May-08 20:11N 01°16' E 103°54'0 0.0
2015-May-08 19:26N 01°16' E 103°54'0 0.0
2015-May-08 18:14N 01°16' E 103°54'0 0.1
2015-May-08 16:08N 01°16' E 103°54'0 0.0
2015-May-08 15:32N 01°16' E 103°54'0 0.0
2015-May-08 14:24N 01°16' E 103°54'0 0.0
2015-May-08 13:33N 01°16' E 103°54'0 0.0
2015-May-08 12:32N 01°16' E 103°54'2 1.8
2015-May-08 11:33N 01°16' E 103°56'7 6.4
2015-May-08 10:32N 01°12' E 103°50'2 1.3
2015-May-08 09:20N 01°13' E 103°49'0 0.1
2015-May-08 07:29N 01°13' E 103°49'0 0.3
2015-May-08 06:30N 01°13' E 103°49'5 5.3
2015-May-08 05:33N 01°14' E 103°54'9 9.2
2015-May-08 04:32N 01°16' E 104°03'  

Dump ship's entire track history